createdAt,value
2023-02-08T00:01:44.895Z,42.4
2023-02-08T00:07:03.671Z,42.5
2023-02-08T00:12:21.975Z,43.1
2023-02-08T00:17:40.606Z,42.6
2023-02-08T00:22:58.544Z,43
2023-02-08T00:28:16.894Z,43
2023-02-08T00:33:35.442Z,42.3
2023-02-08T00:38:53.914Z,43
2023-02-08T00:44:12.427Z,42.4
2023-02-08T00:49:30.878Z,42.6
2023-02-08T00:54:49.476Z,42.2
2023-02-08T01:00:07.719Z,42.4
2023-02-08T01:05:26.474Z,42.1
2023-02-08T01:10:44.998Z,42
2023-02-08T01:16:03.840Z,42
2023-02-08T01:21:22.310Z,42.4
2023-02-08T01:26:40.238Z,42.6
2023-02-08T01:31:58.930Z,41.9
2023-02-08T01:37:17.331Z,42
2023-02-08T01:42:35.819Z,41.9
2023-02-08T01:47:54.368Z,42.8
2023-02-08T01:53:12.550Z,42.3
2023-02-08T01:58:30.896Z,42
2023-02-08T02:03:49.406Z,42.5
2023-02-08T02:09:08.095Z,43
2023-02-08T02:14:26.313Z,42.7
2023-02-08T02:19:45.111Z,42.7
2023-02-08T02:25:03.798Z,42.5
2023-02-08T02:30:22.459Z,42.4
2023-02-08T02:35:40.978Z,42.4
2023-02-08T02:40:59.478Z,41.9
2023-02-08T02:46:18.004Z,41.9
2023-02-08T02:51:36.795Z,41.8
2023-02-08T02:56:55.559Z,42.6
2023-02-08T03:02:14.497Z,42.6
2023-02-08T03:07:32.995Z,41.8
2023-02-08T03:12:51.476Z,42
2023-02-08T03:18:09.696Z,42.3
2023-02-08T03:23:12.320Z,42.5
2023-02-08T03:28:31.073Z,42.6
2023-02-08T03:33:33.401Z,42.4
2023-02-08T03:38:51.885Z,41.8
2023-02-08T03:44:10.657Z,42.5
2023-02-08T03:49:29.209Z,42.8
2023-02-08T03:54:47.702Z,41.9
2023-02-08T04:00:06.215Z,41.7
2023-02-08T04:05:24.270Z,42.5
2023-02-08T04:10:43.605Z,42.4
2023-02-08T04:16:02.418Z,42.2
2023-02-08T04:21:20.967Z,42.3
2023-02-08T04:26:39.450Z,42.4
2023-02-08T04:31:58.356Z,42.2
2023-02-08T04:37:16.564Z,41.5
2023-02-08T04:42:34.772Z,42.3
2023-02-08T04:47:53.554Z,42.4
2023-02-08T04:53:11.797Z,41.7
2023-02-08T04:58:30.032Z,41.3
2023-02-08T05:03:48.217Z,41.6
2023-02-08T05:09:06.685Z,41.6
2023-02-08T05:14:09.842Z,41.7
2023-02-08T05:19:28.092Z,41.6
2023-02-08T05:24:46.977Z,42
2023-02-08T05:29:50.161Z,42.2
2023-02-08T05:35:08.087Z,41.7
2023-02-08T05:40:27.226Z,42.4
2023-02-08T05:45:45.727Z,42.1
2023-02-08T05:51:03.948Z,41.8
2023-02-08T05:56:21.889Z,42.7
2023-02-08T06:01:40.391Z,42.6
2023-02-08T06:06:58.861Z,42
2023-02-08T06:12:17.591Z,42.2
2023-02-08T06:17:36.104Z,41.8
2023-02-08T06:22:54.845Z,41.2
2023-02-08T06:28:13.216Z,41.1
2023-02-08T06:33:31.219Z,41.5
2023-02-08T06:38:51.823Z,41.3
2023-02-08T06:44:09.827Z,41.6
2023-02-08T06:49:28.660Z,41.4
2023-02-08T06:54:46.998Z,41.1
2023-02-08T07:00:05.218Z,41.4
2023-02-08T07:05:23.643Z,40.6
2023-02-08T07:10:46.106Z,40.8
2023-02-08T07:16:04.850Z,41
2023-02-08T07:21:23.117Z,41.3
2023-02-08T07:26:25.961Z,40.8
2023-02-08T07:31:44.871Z,40.7
2023-02-08T07:36:49.031Z,40.8
2023-02-08T07:42:07.056Z,41.2
2023-02-08T07:47:25.865Z,40.4
2023-02-08T07:52:44.370Z,40.3
2023-02-08T07:58:02.851Z,40.8
2023-02-08T08:03:21.061Z,40.9
2023-02-08T08:08:39.514Z,40.1
2023-02-08T08:13:58.143Z,39.8
2023-02-08T08:19:16.905Z,40.7
2023-02-08T08:24:35.725Z,39.9
2023-02-08T08:29:54.388Z,41
2023-02-08T08:35:12.872Z,40.6
2023-02-08T08:40:31.264Z,40.9
2023-02-08T08:45:53.314Z,40.7
2023-02-08T08:51:11.818Z,40.1
2023-02-08T08:56:30.388Z,40
2023-02-08T09:01:49.572Z,40
2023-02-08T09:07:07.821Z,40.5
2023-02-08T09:12:26.028Z,39.3
2023-02-08T09:17:44.786Z,40.5
2023-02-08T09:23:03.003Z,40.9
2023-02-08T09:28:22.143Z,40.5
2023-02-08T09:33:40.755Z,40.3
2023-02-08T09:38:59.269Z,39.4
2023-02-08T09:44:17.528Z,39.1
2023-02-08T09:49:35.701Z,39.7
2023-02-08T09:54:54.296Z,39.4
2023-02-08T10:00:12.830Z,39.1
2023-02-08T10:05:31.302Z,39.5
2023-02-08T10:10:49.793Z,39.6
2023-02-08T10:16:08.492Z,38.2
2023-02-08T10:21:26.800Z,39
2023-02-08T10:26:45.842Z,38.8
2023-02-08T10:32:04.249Z,38.8
2023-02-08T10:37:25.364Z,39.5
2023-02-08T10:42:54.496Z,38.6
2023-02-08T10:48:16.350Z,39.2
2023-02-08T10:53:40.801Z,39.2
2023-02-08T10:59:08.021Z,39
2023-02-08T11:04:29.391Z,39.9
2023-02-08T11:09:58.559Z,40.1
2023-02-08T11:15:25.595Z,40.1
2023-02-08T11:20:47.482Z,40
2023-02-08T11:26:09.162Z,39.1
2023-02-08T11:31:35.582Z,39.4
2023-02-08T11:36:38.770Z,39.9
2023-02-08T11:42:05.570Z,39.5
2023-02-08T11:47:24.334Z,39.7
2023-02-08T11:52:43.562Z,40.4
2023-02-08T11:58:02.708Z,40.3
2023-02-08T12:03:21.377Z,40.3
2023-02-08T12:08:40.460Z,39.3
2023-02-08T12:13:58.660Z,40.4
2023-02-08T12:19:17.917Z,40.2
2023-02-08T12:24:36.436Z,40.3
2023-02-08T12:29:54.979Z,39.6
2023-02-08T12:35:13.939Z,39.8
2023-02-08T12:40:32.538Z,40.5
2023-02-08T12:45:51.049Z,39.9
2023-02-08T12:51:09.853Z,39.1
2023-02-08T12:56:28.087Z,39.7
2023-02-08T13:01:47.102Z,39.9
2023-02-08T13:07:05.337Z,39.7
2023-02-08T13:12:23.868Z,39.7
2023-02-08T13:17:42.338Z,39.8
2023-02-08T13:23:00.924Z,40.7
2023-02-08T13:28:19.735Z,39.7
2023-02-08T13:33:42.615Z,39.7
2023-02-08T13:39:02.804Z,39.7
2023-02-08T13:44:21.336Z,39.5
2023-02-08T13:49:40.487Z,39.7
2023-02-08T13:54:59.306Z,39.6
2023-02-08T14:00:17.882Z,40.2
2023-02-08T14:05:36.744Z,39.6
2023-02-08T14:10:55.376Z,39.4
2023-02-08T14:16:14.301Z,39.6
2023-02-08T14:21:33.129Z,39.7
2023-02-08T14:26:51.644Z,39.4
2023-02-08T14:32:10.254Z,39.5
2023-02-08T14:37:29.126Z,39.5
2023-02-08T14:42:47.861Z,40
2023-02-08T14:48:06.977Z,39.8
2023-02-08T14:53:25.432Z,39.8
2023-02-08T14:58:43.938Z,39.4
2023-02-08T15:04:03.452Z,40.1
2023-02-08T15:09:21.916Z,39.8
2023-02-08T15:14:40.382Z,39.3
2023-02-08T15:19:59.174Z,40.4
2023-02-08T15:25:17.962Z,40.5
2023-02-08T15:30:36.727Z,39.8
2023-02-08T15:35:55.607Z,40.3
2023-02-08T15:41:14.097Z,40.5
2023-02-08T15:46:32.893Z,40.5
2023-02-08T15:51:51.946Z,40
2023-02-08T15:57:10.405Z,39.9
2023-02-08T16:02:28.890Z,40.3
2023-02-08T16:07:47.457Z,40
2023-02-08T16:13:07.091Z,40.1
2023-02-08T16:18:25.675Z,40
2023-02-08T16:23:44.503Z,40.6
2023-02-08T16:29:03.273Z,41.6
2023-02-08T16:34:21.957Z,41.2
2023-02-08T16:39:40.552Z,41.7
2023-02-08T16:44:58.994Z,41.1
2023-02-08T16:50:20.481Z,40.8
2023-02-08T16:55:39.005Z,40.7
2023-02-08T17:00:43.281Z,44.8
2023-02-08T17:06:05.189Z,41.1
2023-02-08T17:11:24.002Z,41.4
2023-02-08T17:16:42.226Z,40.8
2023-02-08T17:22:00.525Z,41.4
2023-02-08T17:27:18.845Z,40.7
2023-02-08T17:32:37.577Z,40.4
2023-02-08T17:37:56.038Z,39.3
2023-02-08T17:43:14.636Z,38.4
2023-02-08T17:48:33.096Z,37.4
2023-02-08T17:53:51.382Z,37.9
2023-02-08T17:59:09.476Z,37.5
2023-02-08T18:04:27.920Z,37.2
2023-02-08T18:09:46.492Z,35.5
2023-02-08T18:15:05.044Z,35.8
2023-02-08T18:20:23.528Z,37.5
2023-02-08T18:25:43.174Z,37.6
2023-02-08T18:31:01.954Z,37.6
2023-02-08T18:36:21.067Z,38.7
2023-02-08T18:41:39.269Z,38.5
2023-02-08T18:46:57.701Z,38.6
2023-02-08T18:52:15.728Z,38.3
2023-02-08T18:57:18.782Z,37.9
2023-02-08T19:02:40.333Z,39.8
2023-02-08T19:07:58.535Z,38.6
2023-02-08T19:13:17.188Z,39.2
2023-02-08T19:18:35.567Z,38.4
2023-02-08T19:23:53.749Z,38.8
2023-02-08T19:29:13.267Z,39.1
2023-02-08T19:34:32.827Z,39.9
2023-02-08T19:39:56.830Z,41.3
2023-02-08T19:44:59.424Z,38.8
2023-02-08T19:50:18.411Z,39.3
2023-02-08T19:55:37.198Z,40.1
2023-02-08T20:00:56.741Z,39.8
2023-02-08T20:06:14.696Z,40.5
2023-02-08T20:11:34.594Z,40.1
2023-02-08T20:16:53.970Z,40.8
2023-02-08T20:22:12.654Z,40.3
2023-02-08T20:27:31.256Z,41.5
2023-02-08T20:32:49.760Z,41.4
2023-02-08T20:38:07.986Z,41.8
2023-02-08T20:43:26.720Z,41.3
2023-02-08T20:48:45.194Z,40.1
2023-02-08T20:54:05.047Z,40.1
2023-02-08T20:59:23.547Z,40.9
2023-02-08T21:04:42.312Z,41.1
2023-02-08T21:10:01.131Z,41.4
2023-02-08T21:15:19.863Z,41.4
2023-02-08T21:20:38.337Z,40.8
2023-02-08T21:25:56.854Z,41.5
2023-02-08T21:31:15.227Z,41.5
2023-02-08T21:36:33.790Z,41.1
2023-02-08T21:41:52.351Z,41.8
2023-02-08T21:47:10.557Z,41.9
2023-02-08T21:52:29.274Z,41.2
2023-02-08T21:57:47.785Z,41.1
2023-02-08T22:03:06.195Z,41.9
2023-02-08T22:08:24.688Z,41.1
2023-02-08T22:13:43.280Z,41.1
2023-02-08T22:19:02.007Z,41.2
2023-02-08T22:24:19.983Z,41.5
2023-02-08T22:29:38.215Z,41.7
2023-02-08T22:34:56.677Z,41.9
2023-02-08T22:39:59.795Z,41.9
2023-02-08T22:45:18.627Z,41.6
2023-02-08T22:50:36.883Z,41.5
2023-02-08T22:55:55.472Z,41.3
2023-02-08T23:01:14.180Z,40.6
2023-02-08T23:06:32.442Z,41.6
2023-02-08T23:11:50.915Z,40.6
2023-02-08T23:17:09.742Z,41.5
2023-02-08T23:22:28.506Z,41.7
2023-02-08T23:27:46.804Z,41.4
2023-02-08T23:33:05.586Z,40.9
2023-02-08T23:38:24.350Z,40.7
2023-02-08T23:43:43.269Z,41.3
2023-02-08T23:49:01.556Z,40.6
2023-02-08T23:54:20.062Z,40.7
2023-02-08T23:59:38.019Z,40.7
